createdAt,value
2018-09-08T00:00:49.674Z,20
2018-09-08T00:05:52.175Z,14
2018-09-08T00:10:54.575Z,12
2018-09-08T00:15:57.278Z,13
2018-09-08T00:20:59.511Z,14
2018-09-08T00:26:02.022Z,13
2018-09-08T00:36:06.869Z,15
2018-09-08T00:41:09.350Z,15
2018-09-08T00:46:12.005Z,17
2018-09-08T00:51:14.268Z,15
2018-09-08T00:56:16.713Z,13
2018-09-08T01:01:19.224Z,16
2018-09-08T01:06:21.635Z,13
2018-09-08T01:11:24.093Z,13
2018-09-08T01:16:26.580Z,14
2018-09-08T01:21:29.052Z,13
2018-09-08T01:26:31.474Z,17
2018-09-08T01:31:33.957Z,16
2018-09-08T01:36:36.372Z,17
2018-09-08T01:41:38.839Z,17
2018-09-08T01:46:41.297Z,17
2018-09-08T01:51:43.740Z,18
2018-09-08T01:56:46.218Z,13
2018-09-08T02:01:48.661Z,15
2018-09-08T02:06:51.135Z,13
2018-09-08T02:11:53.613Z,17
2018-09-08T02:16:56.055Z,15
2018-09-08T02:21:58.577Z,17
2018-09-08T02:27:00.949Z,14
2018-09-08T02:32:03.428Z,12
2018-09-08T02:37:05.907Z,15
2018-09-08T02:42:08.326Z,18
2018-09-08T02:47:10.822Z,12
2018-09-08T02:52:13.255Z,11
2018-09-08T02:57:15.721Z,12
2018-09-08T03:02:18.162Z,12
2018-09-08T03:07:20.651Z,12
2018-09-08T03:12:23.225Z,13
2018-09-08T03:17:25.535Z,14
2018-09-08T03:22:28.009Z,13
2018-09-08T03:27:30.465Z,17
2018-09-08T03:32:32.913Z,12
2018-09-08T03:37:35.475Z,16
2018-09-08T03:42:37.897Z,14
2018-09-08T03:47:40.320Z,16
2018-09-08T03:52:42.868Z,16
2018-09-08T03:57:45.604Z,15
2018-09-08T04:02:47.668Z,14
2018-09-08T04:07:50.242Z,15
2018-09-08T04:12:52.652Z,16
2018-09-08T04:17:55.127Z,16
2018-09-08T04:22:57.497Z,15
2018-09-08T04:28:00.118Z,15
2018-09-08T04:33:02.574Z,16
2018-09-08T04:38:04.903Z,17
2018-09-08T04:43:07.322Z,16
2018-09-08T04:48:09.775Z,17
2018-09-08T04:53:12.236Z,16
2018-09-08T04:58:14.700Z,17
2018-09-08T05:03:17.181Z,17
2018-09-08T05:08:19.644Z,19
2018-09-08T05:13:22.216Z,20
2018-09-08T05:18:24.518Z,17
2018-09-08T05:23:26.980Z,19
2018-09-08T05:28:29.444Z,19
2018-09-08T05:33:32.071Z,19
2018-09-08T05:38:34.358Z,17
2018-09-08T05:43:37.080Z,20
2018-09-08T05:48:39.621Z,16
2018-09-08T05:53:41.745Z,15
2018-09-08T05:58:44.213Z,12
2018-09-08T06:03:46.663Z,14
2018-09-08T06:08:49.137Z,13
2018-09-08T06:13:51.680Z,13
2018-09-08T06:18:54.063Z,14
2018-09-08T06:23:56.493Z,13
2018-09-08T06:28:58.933Z,12
2018-09-08T06:34:01.393Z,12
2018-09-08T06:39:03.925Z,12
2018-09-08T06:44:06.563Z,13
2018-09-08T06:49:08.769Z,15
2018-09-08T06:54:11.287Z,12
2018-09-08T06:59:13.705Z,13
2018-09-08T07:04:16.156Z,12
2018-09-08T07:09:18.638Z,10
2018-09-08T07:14:21.120Z,11
2018-09-08T07:19:23.535Z,9
2018-09-08T07:24:25.984Z,9
2018-09-08T07:29:28.443Z,9
2018-09-08T07:34:31.014Z,14
2018-09-08T07:39:33.386Z,8
2018-09-08T07:44:36.047Z,8
2018-09-08T07:49:38.281Z,5
2018-09-08T07:54:40.795Z,7
2018-09-08T07:59:43.200Z,5
2018-09-08T08:04:45.657Z,6
2018-09-08T08:09:48.116Z,4
2018-09-08T08:14:50.691Z,5
2018-09-08T08:19:53.088Z,5
2018-09-08T08:24:55.481Z,4
2018-09-08T08:29:57.958Z,4
2018-09-08T08:35:00.415Z,4
2018-09-08T08:40:02.874Z,5
2018-09-08T08:45:05.346Z,3
2018-09-08T08:50:07.784Z,4
2018-09-08T08:55:10.246Z,4
2018-09-08T09:00:12.695Z,5
2018-09-08T09:05:15.173Z,5
2018-09-08T09:10:17.629Z,5
2018-09-08T09:15:20.388Z,5
2018-09-08T09:20:22.537Z,6
2018-09-08T09:25:25.006Z,6
2018-09-08T09:30:27.522Z,5
2018-09-08T09:35:30.064Z,5
2018-09-08T09:40:32.738Z,6
2018-09-08T09:45:34.842Z,6
2018-09-08T09:50:37.355Z,5
2018-09-08T09:55:39.745Z,5
2018-09-08T10:00:42.197Z,5
2018-09-08T10:05:44.682Z,4
2018-09-08T10:10:47.143Z,4
2018-09-08T10:15:49.835Z,6
2018-09-08T10:20:52.124Z,4
2018-09-08T10:25:54.533Z,8
2018-09-08T10:30:56.967Z,4
2018-09-08T10:35:59.442Z,4
2018-09-08T10:41:01.885Z,4
2018-09-08T10:46:04.576Z,7
2018-09-08T10:51:06.810Z,4
2018-09-08T10:56:09.261Z,4
2018-09-08T11:01:11.710Z,4
2018-09-08T11:06:14.159Z,3
2018-09-08T11:11:16.626Z,3
2018-09-08T11:16:19.086Z,5
2018-09-08T11:21:21.534Z,4
2018-09-08T11:26:24.008Z,3
2018-09-08T11:31:26.458Z,3
2018-09-08T11:36:28.970Z,3
2018-09-08T11:41:31.383Z,5
2018-09-08T11:46:33.899Z,3
2018-09-08T11:51:36.351Z,3
2018-09-08T11:56:38.805Z,3
2018-09-08T12:01:41.328Z,3
2018-09-08T12:06:43.661Z,3
2018-09-08T12:11:46.163Z,3
2018-09-08T12:16:48.583Z,2
2018-09-08T12:21:51.159Z,2
2018-09-08T12:26:53.511Z,4
2018-09-08T12:31:55.993Z,5
2018-09-08T12:36:58.448Z,3
2018-09-08T12:42:00.902Z,3
2018-09-08T12:47:03.325Z,3
2018-09-08T12:52:05.807Z,3
2018-09-08T12:57:08.258Z,3
2018-09-08T13:02:10.790Z,3
2018-09-08T13:07:13.212Z,2
2018-09-08T13:12:15.625Z,3
2018-09-08T13:17:18.135Z,3
2018-09-08T13:22:20.552Z,2
2018-09-08T13:27:22.997Z,8
2018-09-08T13:32:25.511Z,3
2018-09-08T13:37:27.914Z,2
2018-09-08T13:42:30.407Z,2
2018-09-08T13:47:32.828Z,4
2018-09-08T13:52:35.331Z,3
2018-09-08T13:57:37.777Z,3
2018-09-08T14:02:40.418Z,2
2018-09-08T14:07:42.790Z,13
2018-09-08T14:12:45.125Z,2
2018-09-08T14:17:47.592Z,2
2018-09-08T14:22:50.440Z,3
2018-09-08T14:27:52.722Z,2
2018-09-08T14:32:55.113Z,4
2018-09-08T14:37:57.448Z,3
2018-09-08T14:42:59.895Z,3
2018-09-08T14:48:02.432Z,3
2018-09-08T14:53:04.798Z,2
2018-09-08T14:58:07.692Z,2
2018-09-08T15:03:09.720Z,2
2018-09-08T15:08:12.174Z,2
2018-09-08T15:13:14.642Z,2
2018-09-08T15:18:17.137Z,3
2018-09-08T15:23:19.592Z,3
2018-09-08T15:28:22.133Z,2
2018-09-08T15:33:24.467Z,7
2018-09-08T15:38:27.054Z,3
2018-09-08T15:43:29.755Z,3
2018-09-08T15:48:31.848Z,5
2018-09-08T15:53:34.306Z,2
2018-09-08T15:58:36.785Z,5
2018-09-08T16:03:39.218Z,2
2018-09-08T16:08:41.683Z,3
2018-09-08T16:13:44.147Z,11
2018-09-08T16:18:46.617Z,5
2018-09-08T16:23:49.109Z,13
2018-09-08T16:28:51.517Z,2
2018-09-08T16:33:53.978Z,3
2018-09-08T16:38:56.426Z,3
2018-09-08T16:43:58.981Z,3
2018-09-08T16:49:01.343Z,2
2018-09-08T16:54:03.809Z,3
2018-09-08T16:59:06.349Z,4
2018-09-08T17:04:08.728Z,5
2018-09-08T17:09:11.183Z,4
2018-09-08T17:14:13.688Z,3
2018-09-08T17:19:16.126Z,4
2018-09-08T17:24:18.597Z,5
2018-09-08T17:29:21.084Z,4
2018-09-08T17:34:23.478Z,6
2018-09-08T17:39:25.961Z,5
2018-09-08T17:44:28.400Z,4
2018-09-08T17:49:30.844Z,4
2018-09-08T17:54:33.443Z,4
2018-09-08T17:59:35.780Z,5
2018-09-08T18:04:38.229Z,5
2018-09-08T18:09:40.667Z,5
2018-09-08T18:14:43.297Z,7
2018-09-08T18:19:45.590Z,6
2018-09-08T18:24:48.098Z,8
2018-09-08T18:29:50.565Z,9
2018-09-08T18:34:53.070Z,5
2018-09-08T18:39:55.468Z,4
2018-09-08T18:44:57.926Z,7
2018-09-08T18:50:00.374Z,11
2018-09-08T18:55:02.819Z,11
2018-09-08T19:00:05.288Z,10
2018-09-08T19:05:07.711Z,8
2018-09-08T19:10:10.191Z,7
2018-09-08T19:15:12.642Z,9
2018-09-08T19:20:15.088Z,8
2018-09-08T19:30:20.021Z,7
2018-09-08T19:35:22.472Z,7
2018-09-08T19:40:24.924Z,6
2018-09-08T19:45:27.376Z,6
2018-09-08T19:50:29.829Z,9
2018-09-08T19:55:32.288Z,10
2018-09-08T20:00:34.744Z,11
2018-09-08T20:05:37.285Z,9
2018-09-08T20:10:39.688Z,7
2018-09-08T20:15:42.124Z,9
2018-09-08T20:20:44.574Z,8
2018-09-08T20:25:47.039Z,9
2018-09-08T20:30:49.515Z,8
2018-09-08T20:35:51.994Z,9
2018-09-08T20:40:54.411Z,8
2018-09-08T20:45:56.880Z,9
2018-09-08T20:50:59.346Z,8
2018-09-08T20:56:01.915Z,9
2018-09-08T21:01:04.250Z,9
2018-09-08T21:06:06.726Z,8
2018-09-08T21:11:09.163Z,8
2018-09-08T21:16:11.614Z,8
2018-09-08T21:21:14.096Z,7
2018-09-08T21:26:16.531Z,8
2018-09-08T21:31:19.007Z,8
2018-09-08T21:36:21.477Z,8
2018-09-08T21:41:23.913Z,9
2018-09-08T21:46:26.393Z,9
2018-09-08T21:51:28.863Z,8
2018-09-08T21:56:31.302Z,9
2018-09-08T22:01:33.737Z,9
2018-09-08T22:06:36.193Z,8
2018-09-08T22:11:38.665Z,8
2018-09-08T22:16:41.146Z,8
2018-09-08T22:21:43.564Z,8
2018-09-08T22:26:46.089Z,7
2018-09-08T22:31:48.493Z,9
2018-09-08T22:36:51.060Z,9
2018-09-08T22:41:53.415Z,9
2018-09-08T22:46:55.862Z,9
2018-09-08T22:51:58.336Z,9
2018-09-08T22:57:00.782Z,7
2018-09-08T23:02:03.344Z,8
2018-09-08T23:07:05.693Z,7
2018-09-08T23:12:08.187Z,8
2018-09-08T23:17:10.605Z,8
2018-09-08T23:22:13.087Z,9
2018-09-08T23:27:15.580Z,8
2018-09-08T23:32:17.990Z,7
2018-09-08T23:37:20.432Z,7
2018-09-08T23:42:22.902Z,8
2018-09-08T23:47:25.364Z,8
2018-09-08T23:52:27.822Z,9
2018-09-08T23:57:30.290Z,8
